• Join FlightAware (Why Join?)
  • Login
  • US Flag 
12:05PM EDT


 

Airport Tracker/Info


-or-


 

Live Flight TrackerFlight Track Log ✈ ELJ733 ✈ 23-Oct-2013 ✈ KLEX - KTEB

Flight Track Log - Related Links

Times and Time Zones

All times are in EDT time to prevent confusion due to time zone crossing. See the ELJ733 flight status page for this flight to view local times or setup timezone preferences in your user account.

Time Position Orientation Groundspeed Altitude Reporting Facility
EDT Latitude Longitude Course Direction KTS MPH feet Rate Location/Type
06:25PM 37.9439 -84.6289 139° Southeast 258 297 8,600  Level Indianapolis Center
06:26PM 37.8761 -84.5553 139° Southeast 335 386 10,300 2,940 Climbing Indianapolis Center
06:27PM 37.8775 -84.4161 89° East 390 449 14,700 3,780 Climbing Indianapolis Center
06:28PM 37.8769 -84.2572 90° East 438 504 18,200 3,300 Climbing Indianapolis Center
06:29PM 37.8736 -84.0875 91° East 472 543 21,600 1,800 Climbing Indianapolis Center
06:30PM 37.8694 -83.8669 91° East 526 605 22,000 180 Climbing Indianapolis Center
06:31PM 37.8656 -83.6692 91° East 553 636 22,000 120 Level Indianapolis Center
06:32PM 37.8625 -83.4756 91° East 550 633 22,300 900 Climbing Indianapolis Center
06:33PM 37.8567 -83.2867 92° East 538 619 23,900 1,980 Climbing Indianapolis Center
06:34PM 37.8514 -83.0883 92° East 556 640 26,400 2,400 Climbing Indianapolis Center
06:35PM 37.8467 -82.8867 92° East 567 652 29,000 2,160 Climbing Indianapolis Center
06:36PM 37.8394 -82.6514 92° East 568 654 31,000 960 Climbing Indianapolis Center
06:37PM 37.8319 -82.4428 92° East 585 673 31,000 360 Level Indianapolis Center
06:38PM 37.8325 -82.4758 92° East  Level FlightAware Approximate
06:38PM 37.8244 -82.2372 93° East 584 672 31,800  Level Indianapolis Center
06:39PM 37.8192 -82.0400 92° East 565 650 32,000 60 Climbing Indianapolis Center
06:40PM 37.8114 -81.8283 93° East 593 682 32,000  Level Indianapolis Center
06:42PM 37.8206 -81.6175 87° East 599 689 32,000  Level Indianapolis Center
06:43PM 37.8750 -81.4125 71° East 583 671 32,000 720 Level Indianapolis Center
06:44PM 37.9278 -81.2219 71° East 577 664 33,600 1,980 Climbing Indianapolis Center
06:45PM 37.9356 -81.0267 87° East 558 642 36,100 1,620 Climbing Indianapolis Center
06:46PM 37.9300 -80.7972 92° East 548 631 37,000 420 Climbing Indianapolis Center
06:47PM 37.9278 -80.5975 91° East 563 648 37,000  Level Indianapolis Center
06:48PM 37.9258 -80.3867 91° East 558 642 37,000  Level Indianapolis Center
06:49PM 37.9225 -80.2006 91° East 544 626 37,000  Level Indianapolis Center
06:50PM 37.9200 -80.0133 91° East 544 626 37,000  Level Indianapolis Center
06:51PM 37.9164 -79.8247 91° East 547 629 37,000  Level Indianapolis Center
06:52PM 37.9125 -79.5983 91° East 545 627 37,000  Level Indianapolis Center
06:53PM 37.9106 -79.4031 91° East 553 636 37,000  Level Washington Center
06:54PM 37.9058 -79.2106 92° East 553 636 37,000  Level Washington Center
06:55PM 37.9186 -78.9953 86° East 553 636 37,000  Level Washington Center
06:56PM 37.9406 -78.8014 82° East 553 636 37,000  Level Washington Center
06:57PM 37.9644 -78.6075 81° East 553 636 37,000  Level Washington Center
06:58PM 37.9878 -78.4161 81° East 553 636 37,000  Level Washington Center
06:59PM 38.0089 -78.2244 82° East 558 642 37,000  Level Washington Center
07:00PM 38.0581 -78.0628 69° East 553 636 37,000  Level Washington Center
07:01PM 38.1408 -77.8967 58° Northeast 539 620 37,000  Level Washington Center
07:02PM 38.2231 -77.7325 57° Northeast 544 626 37,000  Level Washington Center
07:03PM 38.3072 -77.5631 58° Northeast 556 640 37,000 -120 Level Washington Center
07:04PM 38.4056 -77.4172 49° Northeast 549 632 36,800 -660 Descending Washington Center
07:05PM 38.5286 -77.2664 44° Northeast 544 626 35,700 -1,080 Descending Washington Center
07:06PM 38.6431 -77.1228 44° Northeast 555 639 34,700 -900 Descending Washington Center
07:07PM 38.7319 -77.0047 46° Northeast 561 646 33,900 -1,620 Descending Washington Center
07:08PM 38.8675 -76.8286 45° Northeast 566 651 31,500 -2,520 Descending Washington Center
07:09PM 38.9814 -76.6811 45° Northeast 572 658 29,000 -2,580 Descending Washington Center
07:10PM 39.0931 -76.5331 46° Northeast 572 658 26,500 -2,220 Descending Washington Center
07:11PM 39.1794 -76.4217 45° Northeast 572 658 24,600 -1,260 Descending Washington Center
07:12PM 39.2992 -76.2619 46° Northeast 534 615 24,000 -480 Descending Washington Center
07:13PM 39.3997 -76.1314 45° Northeast 510 587 23,700 -1,920 Descending Washington Center
07:15PM 39.5833 -75.8833 46° Northeast 459 528 18,500 -2,700 Descending Philadelphia TRACON
07:16PM 39.6667 -75.7667 47° Northeast 427 491 16,000 -2,400 Descending Philadelphia TRACON
07:17PM 39.7333 -75.6667 49° Northeast 388 447 13,800 -1,500 Descending Philadelphia TRACON
07:18PM 39.8167 -75.5833 38° Northeast 368 423 13,000 -420 Descending Philadelphia TRACON
07:19PM 39.9167 -75.5000 33° Northeast 370 426 13,000  Level Philadelphia TRACON
07:20PM 40.0000 -75.4167 37° Northeast 374 430 13,000  Level Philadelphia TRACON
07:21PM 40.0833 -75.3333 37° Northeast 377 434 13,000 -60 Level Philadelphia TRACON
07:22PM 40.1667 -75.2667 31° Northeast 377 434 12,900 -1,320 Descending Philadelphia TRACON
07:24PM 40.3333 -75.1000 37° Northeast 296 341 8,900 -1,800 Descending New York TRACON
07:25PM 40.3667 -75.0333 57° Northeast 276 318 7,500 -1,380 Descending New York TRACON
07:26PM 40.4333 -74.9500 44° Northeast 277 319 6,200 -1,200 Descending New York TRACON
07:27PM 40.4833 -74.8667 52° Northeast 279 321 5,000 -1,200 Descending New York TRACON
07:28PM 40.5000 -74.7667 78° East 272 313 3,900 -1,020 Descending New York TRACON
07:29PM 40.5333 -74.6833 62° Northeast 260 299 3,000 -480 Descending New York TRACON
07:30PM 40.5500 -74.6000 75° East 256 295 3,000  Level New York TRACON
07:31PM 40.5833 -74.5167 62° Northeast 250 288 3,000  Level New York TRACON
07:32PM 40.6167 -74.4500 57° Northeast 248 285 3,000  Level New York TRACON
07:33PM 40.6500 -74.3667 62° Northeast 221 254 3,000 -360 Level New York TRACON
07:34PM 40.6833 -74.3167 49° Northeast 200 230 2,300 -540 Descending New York TRACON
07:35PM 40.7167 -74.2500 57° Northeast 194 223 2,000 -420 Descending New York TRACON
07:36PM 40.7500 -74.2000 49° Northeast 189 217 1,500 -240 Descending New York TRACON
07:37PM 40.7833 -74.1500 49° Northeast 175 201 1,500 -300 Level New York TRACON
07:38PM 40.8167 -74.1167 37° Northeast 147 169 1,000 -600 Descending New York TRACON
07:40PM 40.8500 -74.0500 57° Northeast  Level FlightAware Approximate
07:47PM 40.8501 -74.0608 57° Northeast  Level Estimated